sensor_id;sensor_type;location;lat;lon;timestamp;temperature;humidity
10468;DHT22;5281;48.878;9.394;2022-12-18T00:01:24;-6.40;99.90
10468;DHT22;5281;48.878;9.394;2022-12-18T00:03:51;-6.50;99.90
10468;DHT22;5281;48.878;9.394;2022-12-18T00:06:19;-6.50;99.90
10468;DHT22;5281;48.878;9.394;2022-12-18T00:08:47;-6.60;99.90
10468;DHT22;5281;48.878;9.394;2022-12-18T00:11:17;-6.70;99.90
10468;DHT22;5281;48.878;9.394;2022-12-18T00:13:44;-6.70;99.90
10468;DHT22;5281;48.878;9.394;2022-12-18T00:16:13;-6.80;99.90
10468;DHT22;5281;48.878;9.394;2022-12-18T00:18:41;-6.90;99.90
10468;DHT22;5281;48.878;9.394;2022-12-18T00:21:10;-7.10;99.90
10468;DHT22;5281;48.878;9.394;2022-12-18T00:23:38;-7.10;99.90
10468;DHT22;5281;48.878;9.394;2022-12-18T00:26:09;-7.20;99.90
10468;DHT22;5281;48.878;9.394;2022-12-18T00:28:36;-7.30;99.90
10468;DHT22;5281;48.878;9.394;2022-12-18T00:31:04;-7.40;99.90
10468;DHT22;5281;48.878;9.394;2022-12-18T00:33:31;-7.40;99.90
10468;DHT22;5281;48.878;9.394;2022-12-18T00:36:00;-7.30;99.90
10468;DHT22;5281;48.878;9.394;2022-12-18T00:38:27;-7.30;99.90
10468;DHT22;5281;48.878;9.394;2022-12-18T00:40:54;-7.30;99.90
10468;DHT22;5281;48.878;9.394;2022-12-18T00:43:22;-7.30;99.90
10468;DHT22;5281;48.878;9.394;2022-12-18T00:45:48;-7.30;99.90
10468;DHT22;5281;48.878;9.394;2022-12-18T00:48:15;-7.20;99.90
10468;DHT22;5281;48.878;9.394;2022-12-18T00:50:42;-7.10;99.90
10468;DHT22;5281;48.878;9.394;2022-12-18T00:53:10;-7.10;99.90
10468;DHT22;5281;48.878;9.394;2022-12-18T00:55:37;-7.10;99.90
10468;DHT22;5281;48.878;9.394;2022-12-18T00:58:05;-7.00;99.90
10468;DHT22;5281;48.878;9.394;2022-12-18T01:00:33;-7.00;99.90
10468;DHT22;5281;48.878;9.394;2022-12-18T01:03:00;-6.90;99.90
10468;DHT22;5281;48.878;9.394;2022-12-18T01:05:27;-7.00;99.90
10468;DHT22;5281;48.878;9.394;2022-12-18T01:07:55;-7.10;99.90
10468;DHT22;5281;48.878;9.394;2022-12-18T01:10:22;-7.20;99.90
10468;DHT22;5281;48.878;9.394;2022-12-18T01:12:49;-7.10;99.90
10468;DHT22;5281;48.878;9.394;2022-12-18T01:15:17;-7.10;99.90
10468;DHT22;5281;48.878;9.394;2022-12-18T01:17:45;-7.10;99.90
10468;DHT22;5281;48.878;9.394;2022-12-18T01:20:13;-7.20;99.90
10468;DHT22;5281;48.878;9.394;2022-12-18T01:22:39;-7.20;99.90
10468;DHT22;5281;48.878;9.394;2022-12-18T01:25:07;-7.20;99.90
10468;DHT22;5281;48.878;9.394;2022-12-18T01:27:34;-7.20;99.90
10468;DHT22;5281;48.878;9.394;2022-12-18T01:30:01;-7.20;99.90
10468;DHT22;5281;48.878;9.394;2022-12-18T01:32:29;-7.10;99.90
10468;DHT22;5281;48.878;9.394;2022-12-18T01:34:58;-7.10;99.90
10468;DHT22;5281;48.878;9.394;2022-12-18T01:37:25;-7.10;99.90
10468;DHT22;5281;48.878;9.394;2022-12-18T01:39:52;-7.00;99.90
10468;DHT22;5281;48.878;9.394;2022-12-18T01:42:20;-6.90;99.90
10468;DHT22;5281;48.878;9.394;2022-12-18T01:45:00;-6.90;99.90
10468;DHT22;5281;48.878;9.394;2022-12-18T01:47:32;-6.80;99.90
10468;DHT22;5281;48.878;9.394;2022-12-18T01:50:04;-6.80;99.90
10468;DHT22;5281;48.878;9.394;2022-12-18T01:52:32;-6.80;99.90
10468;DHT22;5281;48.878;9.394;2022-12-18T01:55:00;-6.80;99.90
10468;DHT22;5281;48.878;9.394;2022-12-18T01:57:28;-6.80;99.90
10468;DHT22;5281;48.878;9.394;2022-12-18T01:59:59;-6.80;99.90
10468;DHT22;5281;48.878;9.394;2022-12-18T02:02:27;-6.70;99.90
10468;DHT22;5281;48.878;9.394;2022-12-18T02:04:55;-6.70;99.90
10468;DHT22;5281;48.878;9.394;2022-12-18T02:07:26;-6.70;99.90
10468;DHT22;5281;48.878;9.394;2022-12-18T02:10:00;-6.70;99.90
10468;DHT22;5281;48.878;9.394;2022-12-18T02:12:33;-6.80;99.90
10468;DHT22;5281;48.878;9.394;2022-12-18T02:15:07;-6.80;99.90
10468;DHT22;5281;48.878;9.394;2022-12-18T02:17:38;-6.90;99.90
10468;DHT22;5281;48.878;9.394;2022-12-18T02:20:14;-6.90;99.90
10468;DHT22;5281;48.878;9.394;2022-12-18T02:22:55;-6.90;99.90
10468;DHT22;5281;48.878;9.394;2022-12-18T02:25:37;-6.80;99.90
10468;DHT22;5281;48.878;9.394;2022-12-18T02:28:10;-6.70;99.90
10468;DHT22;5281;48.878;9.394;2022-12-18T02:30:39;-6.70;99.90
10468;DHT22;5281;48.878;9.394;2022-12-18T02:33:08;-6.60;99.90
10468;DHT22;5281;48.878;9.394;2022-12-18T02:35:36;-6.50;99.90
10468;DHT22;5281;48.878;9.394;2022-12-18T02:38:04;-6.50;99.90
10468;DHT22;5281;48.878;9.394;2022-12-18T02:40:32;-6.60;99.90
10468;DHT22;5281;48.878;9.394;2022-12-18T02:43:03;-6.70;99.90
10468;DHT22;5281;48.878;9.394;2022-12-18T02:45:34;-6.70;99.90
10468;DHT22;5281;48.878;9.394;2022-12-18T02:48:01;-6.70;99.90
10468;DHT22;5281;48.878;9.394;2022-12-18T02:50:34;-6.70;99.90
10468;DHT22;5281;48.878;9.394;2022-12-18T02:53:09;-6.70;99.90
10468;DHT22;5281;48.878;9.394;2022-12-18T02:55:47;-6.60;99.90
10468;DHT22;5281;48.878;9.394;2022-12-18T02:58:23;-6.50;99.90
10468;DHT22;5281;48.878;9.394;2022-12-18T03:00:58;-6.40;99.90
10468;DHT22;5281;48.878;9.394;2022-12-18T03:03:29;-6.50;99.90
10468;DHT22;5281;48.878;9.394;2022-12-18T03:06:01;-6.40;99.90
10468;DHT22;5281;48.878;9.394;2022-12-18T03:08:34;-6.40;99.90
10468;DHT22;5281;48.878;9.394;2022-12-18T03:11:06;-6.40;99.90
10468;DHT22;5281;48.878;9.394;2022-12-18T03:13:37;-6.40;99.90
10468;DHT22;5281;48.878;9.394;2022-12-18T03:16:11;-6.30;99.90
10468;DHT22;5281;48.878;9.394;2022-12-18T03:18:43;-6.20;99.90
10468;DHT22;5281;48.878;9.394;2022-12-18T03:21:13;-6.20;99.90
10468;DHT22;5281;48.878;9.394;2022-12-18T03:23:44;-6.20;99.90
10468;DHT22;5281;48.878;9.394;2022-12-18T03:26:16;-6.30;99.90
10468;DHT22;5281;48.878;9.394;2022-12-18T03:28:47;-6.40;99.90
10468;DHT22;5281;48.878;9.394;2022-12-18T03:31:19;-6.40;99.90
10468;DHT22;5281;48.878;9.394;2022-12-18T03:33:52;-6.40;99.90
10468;DHT22;5281;48.878;9.394;2022-12-18T03:36:19;-6.40;99.90
10468;DHT22;5281;48.878;9.394;2022-12-18T03:38:46;-6.40;99.90
10468;DHT22;5281;48.878;9.394;2022-12-18T03:41:18;-6.40;99.90
10468;DHT22;5281;48.878;9.394;2022-12-18T03:43:51;-6.40;99.90
10468;DHT22;5281;48.878;9.394;2022-12-18T03:46:25;-6.40;99.90
10468;DHT22;5281;48.878;9.394;2022-12-18T03:48:59;-6.30;99.90
10468;DHT22;5281;48.878;9.394;2022-12-18T03:51:34;-6.30;99.90
10468;DHT22;5281;48.878;9.394;2022-12-18T03:54:05;-6.40;99.90
10468;DHT22;5281;48.878;9.394;2022-12-18T03:56:37;-6.30;99.90
10468;DHT22;5281;48.878;9.394;2022-12-18T03:59:05;-6.40;99.90
10468;DHT22;5281;48.878;9.394;2022-12-18T04:01:38;-6.30;99.90
10468;DHT22;5281;48.878;9.394;2022-12-18T04:04:07;-6.30;99.90
10468;DHT22;5281;48.878;9.394;2022-12-18T04:06:35;-6.20;99.90
10468;DHT22;5281;48.878;9.394;2022-12-18T04:09:04;-6.20;99.90
10468;DHT22;5281;48.878;9.394;2022-12-18T04:11:31;-6.20;99.90
10468;DHT22;5281;48.878;9.394;2022-12-18T04:13:58;-6.20;99.90
10468;DHT22;5281;48.878;9.394;2022-12-18T04:16:25;-6.20;99.90
10468;DHT22;5281;48.878;9.394;2022-12-18T04:18:54;-6.20;99.90
10468;DHT22;5281;48.878;9.394;2022-12-18T04:21:21;-6.20;99.90
10468;DHT22;5281;48.878;9.394;2022-12-18T04:23:48;-6.30;99.90
10468;DHT22;5281;48.878;9.394;2022-12-18T04:26:15;-6.20;99.90
10468;DHT22;5281;48.878;9.394;2022-12-18T04:28:42;-6.30;99.90
10468;DHT22;5281;48.878;9.394;2022-12-18T04:31:09;-6.30;99.90
10468;DHT22;5281;48.878;9.394;2022-12-18T04:33:36;-6.30;99.90
10468;DHT22;5281;48.878;9.394;2022-12-18T04:36:05;-6.20;99.90
10468;DHT22;5281;48.878;9.394;2022-12-18T04:38:32;-6.20;99.90
10468;DHT22;5281;48.878;9.394;2022-12-18T04:40:59;-6.10;99.90
10468;DHT22;5281;48.878;9.394;2022-12-18T04:43:26;-6.00;99.90
10468;DHT22;5281;48.878;9.394;2022-12-18T04:45:52;-6.00;99.90
10468;DHT22;5281;48.878;9.394;2022-12-18T04:48:20;-5.90;99.90
10468;DHT22;5281;48.878;9.394;2022-12-18T04:50:47;-5.90;99.90
10468;DHT22;5281;48.878;9.394;2022-12-18T04:53:15;-5.80;99.90
10468;DHT22;5281;48.878;9.394;2022-12-18T04:55:42;-5.80;99.90
10468;DHT22;5281;48.878;9.394;2022-12-18T04:58:08;-5.80;99.90
10468;DHT22;5281;48.878;9.394;2022-12-18T05:00:35;-5.90;99.90
10468;DHT22;5281;48.878;9.394;2022-12-18T05:03:02;-5.90;99.90
10468;DHT22;5281;48.878;9.394;2022-12-18T05:05:29;-5.90;99.90
10468;DHT22;5281;48.878;9.394;2022-12-18T05:07:56;-5.90;99.90
10468;DHT22;5281;48.878;9.394;2022-12-18T05:10:24;-6.00;99.90
10468;DHT22;5281;48.878;9.394;2022-12-18T05:12:50;-5.90;99.90
10468;DHT22;5281;48.878;9.394;2022-12-18T05:15:28;-5.90;99.90
10468;DHT22;5281;48.878;9.394;2022-12-18T05:17:54;-5.80;99.90
10468;DHT22;5281;48.878;9.394;2022-12-18T05:20:21;-5.80;99.90
10468;DHT22;5281;48.878;9.394;2022-12-18T05:22:48;-5.90;99.90
10468;DHT22;5281;48.878;9.394;2022-12-18T05:25:15;-6.00;99.90
10468;DHT22;5281;48.878;9.394;2022-12-18T05:27:43;-6.00;99.90
10468;DHT22;5281;48.878;9.394;2022-12-18T05:30:11;-6.10;99.90
10468;DHT22;5281;48.878;9.394;2022-12-18T05:32:38;-6.20;99.90
10468;DHT22;5281;48.878;9.394;2022-12-18T05:35:07;-6.20;99.90
10468;DHT22;5281;48.878;9.394;2022-12-18T05:37:35;-6.20;99.90
10468;DHT22;5281;48.878;9.394;2022-12-18T05:40:02;-6.20;99.90
10468;DHT22;5281;48.878;9.394;2022-12-18T05:42:28;-6.00;99.90
10468;DHT22;5281;48.878;9.394;2022-12-18T05:44:57;-6.00;99.90
10468;DHT22;5281;48.878;9.394;2022-12-18T05:47:23;-5.90;99.90
10468;DHT22;5281;48.878;9.394;2022-12-18T05:49:50;-5.80;99.90
10468;DHT22;5281;48.878;9.394;2022-12-18T05:52:17;-5.80;99.90
10468;DHT22;5281;48.878;9.394;2022-12-18T05:54:44;-5.70;99.90
10468;DHT22;5281;48.878;9.394;2022-12-18T05:57:11;-5.60;99.90
10468;DHT22;5281;48.878;9.394;2022-12-18T05:59:38;-5.60;99.90
10468;DHT22;5281;48.878;9.394;2022-12-18T06:02:06;-5.50;99.90
10468;DHT22;5281;48.878;9.394;2022-12-18T06:04:33;-5.50;99.90
10468;DHT22;5281;48.878;9.394;2022-12-18T06:07:00;-5.40;99.90
10468;DHT22;5281;48.878;9.394;2022-12-18T06:09:27;-5.40;99.90
10468;DHT22;5281;48.878;9.394;2022-12-18T06:11:55;-5.40;99.90
10468;DHT22;5281;48.878;9.394;2022-12-18T06:14:22;-5.40;99.90
10468;DHT22;5281;48.878;9.394;2022-12-18T06:16:50;-5.40;99.90
10468;DHT22;5281;48.878;9.394;2022-12-18T06:19:19;-5.40;99.90
10468;DHT22;5281;48.878;9.394;2022-12-18T06:21:45;-5.50;99.90
10468;DHT22;5281;48.878;9.394;2022-12-18T06:24:12;-5.60;99.90
10468;DHT22;5281;48.878;9.394;2022-12-18T06:26:40;-5.50;99.90
10468;DHT22;5281;48.878;9.394;2022-12-18T06:29:07;-5.40;99.90
10468;DHT22;5281;48.878;9.394;2022-12-18T06:31:34;-5.30;99.90
10468;DHT22;5281;48.878;9.394;2022-12-18T06:34:02;-5.30;99.90
10468;DHT22;5281;48.878;9.394;2022-12-18T06:36:31;-5.30;99.90
10468;DHT22;5281;48.878;9.394;2022-12-18T06:38:58;-5.30;99.90
10468;DHT22;5281;48.878;9.394;2022-12-18T06:41:24;-5.30;99.90
10468;DHT22;5281;48.878;9.394;2022-12-18T06:43:51;-5.40;99.90
10468;DHT22;5281;48.878;9.394;2022-12-18T06:46:18;-5.50;99.90
10468;DHT22;5281;48.878;9.394;2022-12-18T06:48:47;-5.60;99.90
10468;DHT22;5281;48.878;9.394;2022-12-18T06:51:19;-5.60;99.90
10468;DHT22;5281;48.878;9.394;2022-12-18T06:53:47;-5.60;99.90
10468;DHT22;5281;48.878;9.394;2022-12-18T06:56:15;-5.60;99.90
10468;DHT22;5281;48.878;9.394;2022-12-18T06:58:42;-5.70;99.90
10468;DHT22;5281;48.878;9.394;2022-12-18T07:01:10;-5.70;99.90
10468;DHT22;5281;48.878;9.394;2022-12-18T07:03:38;-5.80;99.90
10468;DHT22;5281;48.878;9.394;2022-12-18T07:06:05;-5.80;99.90
10468;DHT22;5281;48.878;9.394;2022-12-18T07:08:32;-5.80;99.90
10468;DHT22;5281;48.878;9.394;2022-12-18T07:11:03;-5.90;99.90
10468;DHT22;5281;48.878;9.394;2022-12-18T07:13:30;-5.80;99.90
10468;DHT22;5281;48.878;9.394;2022-12-18T07:16:06;-5.80;99.90
10468;DHT22;5281;48.878;9.394;2022-12-18T07:18:33;-5.80;99.90
10468;DHT22;5281;48.878;9.394;2022-12-18T07:21:03;-5.80;99.90
10468;DHT22;5281;48.878;9.394;2022-12-18T07:23:32;-5.90;99.90
10468;DHT22;5281;48.878;9.394;2022-12-18T07:26:02;-5.80;99.90
10468;DHT22;5281;48.878;9.394;2022-12-18T07:28:29;-5.80;99.90
10468;DHT22;5281;48.878;9.394;2022-12-18T07:30:56;-5.80;99.90
10468;DHT22;5281;48.878;9.394;2022-12-18T07:33:24;-5.70;99.90
10468;DHT22;5281;48.878;9.394;2022-12-18T07:35:50;-5.60;99.90
10468;DHT22;5281;48.878;9.394;2022-12-18T07:38:17;-5.60;99.90
10468;DHT22;5281;48.878;9.394;2022-12-18T07:40:44;-5.60;99.90
10468;DHT22;5281;48.878;9.394;2022-12-18T07:43:12;-5.50;99.90
10468;DHT22;5281;48.878;9.394;2022-12-18T07:45:39;-5.40;99.90
10468;DHT22;5281;48.878;9.394;2022-12-18T07:48:05;-5.30;99.90
10468;DHT22;5281;48.878;9.394;2022-12-18T07:50:32;-5.20;99.90
10468;DHT22;5281;48.878;9.394;2022-12-18T07:52:59;-5.10;99.90
10468;DHT22;5281;48.878;9.394;2022-12-18T07:55:28;-5.10;99.90
10468;DHT22;5281;48.878;9.394;2022-12-18T07:57:55;-5.10;99.90
10468;DHT22;5281;48.878;9.394;2022-12-18T08:00:23;-5.20;99.90
10468;DHT22;5281;48.878;9.394;2022-12-18T08:02:50;-5.20;99.90
10468;DHT22;5281;48.878;9.394;2022-12-18T08:05:17;-5.30;99.90
10468;DHT22;5281;48.878;9.394;2022-12-18T08:07:44;-5.20;99.90
10468;DHT22;5281;48.878;9.394;2022-12-18T08:10:10;-5.10;99.90
10468;DHT22;5281;48.878;9.394;2022-12-18T08:12:37;-5.20;99.90
10468;DHT22;5281;48.878;9.394;2022-12-18T08:15:04;-5.10;99.90
10468;DHT22;5281;48.878;9.394;2022-12-18T08:17:33;-5.10;99.90
10468;DHT22;5281;48.878;9.394;2022-12-18T08:19:59;-5.00;99.90
10468;DHT22;5281;48.878;9.394;2022-12-18T08:22:26;-4.90;99.90
10468;DHT22;5281;48.878;9.394;2022-12-18T08:24:53;-4.70;99.90
10468;DHT22;5281;48.878;9.394;2022-12-18T08:27:20;-4.40;99.90
10468;DHT22;5281;48.878;9.394;2022-12-18T08:29:46;-4.40;99.90
10468;DHT22;5281;48.878;9.394;2022-12-18T08:32:13;-4.20;99.90
10468;DHT22;5281;48.878;9.394;2022-12-18T08:34:41;-4.00;99.90
10468;DHT22;5281;48.878;9.394;2022-12-18T08:37:08;-3.80;99.90
10468;DHT22;5281;48.878;9.394;2022-12-18T08:39:35;-3.70;99.90
10468;DHT22;5281;48.878;9.394;2022-12-18T08:42:01;-3.50;99.90
10468;DHT22;5281;48.878;9.394;2022-12-18T08:44:46;-3.40;99.90
10468;DHT22;5281;48.878;9.394;2022-12-18T08:47:12;-3.20;99.90
10468;DHT22;5281;48.878;9.394;2022-12-18T08:49:40;-3.10;99.90
10468;DHT22;5281;48.878;9.394;2022-12-18T08:52:07;-2.90;99.90
10468;DHT22;5281;48.878;9.394;2022-12-18T08:54:34;-2.90;99.90
10468;DHT22;5281;48.878;9.394;2022-12-18T08:57:01;-2.80;99.90
10468;DHT22;5281;48.878;9.394;2022-12-18T08:59:27;-2.70;99.90
10468;DHT22;5281;48.878;9.394;2022-12-18T09:01:54;-2.60;99.90
10468;DHT22;5281;48.878;9.394;2022-12-18T09:04:21;-2.50;99.90
10468;DHT22;5281;48.878;9.394;2022-12-18T09:06:49;-2.40;99.90
10468;DHT22;5281;48.878;9.394;2022-12-18T09:09:16;-2.40;99.90
10468;DHT22;5281;48.878;9.394;2022-12-18T09:11:43;-2.40;99.90
10468;DHT22;5281;48.878;9.394;2022-12-18T09:14:10;-2.40;99.90
10468;DHT22;5281;48.878;9.394;2022-12-18T09:16:36;-2.20;99.90
10468;DHT22;5281;48.878;9.394;2022-12-18T09:19:04;-2.10;99.90
10468;DHT22;5281;48.878;9.394;2022-12-18T09:21:33;-2.00;99.90
10468;DHT22;5281;48.878;9.394;2022-12-18T09:24:02;-1.80;99.90
10468;DHT22;5281;48.878;9.394;2022-12-18T09:26:28;-1.80;99.90
10468;DHT22;5281;48.878;9.394;2022-12-18T09:28:55;-1.70;99.90
10468;DHT22;5281;48.878;9.394;2022-12-18T09:31:23;-1.70;99.90
10468;DHT22;5281;48.878;9.394;2022-12-18T09:33:51;-1.70;99.90
10468;DHT22;5281;48.878;9.394;2022-12-18T09:36:19;-1.60;99.90
10468;DHT22;5281;48.878;9.394;2022-12-18T09:38:45;-1.50;99.90
10468;DHT22;5281;48.878;9.394;2022-12-18T09:41:37;-1.60;99.90
10468;DHT22;5281;48.878;9.394;2022-12-18T09:44:13;-1.70;99.90
10468;DHT22;5281;48.878;9.394;2022-12-18T09:46:45;-1.80;99.90
10468;DHT22;5281;48.878;9.394;2022-12-18T09:49:17;-1.90;99.90
10468;DHT22;5281;48.878;9.394;2022-12-18T09:51:48;-2.10;99.90
10468;DHT22;5281;48.878;9.394;2022-12-18T09:54:20;-2.20;99.90
10468;DHT22;5281;48.878;9.394;2022-12-18T09:56:49;-2.30;99.90
10468;DHT22;5281;48.878;9.394;2022-12-18T09:59:21;-2.20;99.90
10468;DHT22;5281;48.878;9.394;2022-12-18T10:01:49;-2.30;99.90
10468;DHT22;5281;48.878;9.394;2022-12-18T10:04:16;-2.30;99.90
10468;DHT22;5281;48.878;9.394;2022-12-18T10:06:48;-2.10;99.90
10468;DHT22;5281;48.878;9.394;2022-12-18T10:09:27;-2.00;99.90
10468;DHT22;5281;48.878;9.394;2022-12-18T10:12:02;-2.00;99.90
10468;DHT22;5281;48.878;9.394;2022-12-18T10:14:38;-1.90;99.90
10468;DHT22;5281;48.878;9.394;2022-12-18T10:17:14;-1.90;99.90
10468;DHT22;5281;48.878;9.394;2022-12-18T10:19:47;-1.80;99.90
10468;DHT22;5281;48.878;9.394;2022-12-18T10:22:23;-1.80;99.90
10468;DHT22;5281;48.878;9.394;2022-12-18T10:24:57;-1.60;99.90
10468;DHT22;5281;48.878;9.394;2022-12-18T10:27:28;-1.30;99.90
10468;DHT22;5281;48.878;9.394;2022-12-18T10:29:56;-1.40;99.90
10468;DHT22;5281;48.878;9.394;2022-12-18T10:32:24;-1.20;99.90
10468;DHT22;5281;48.878;9.394;2022-12-18T10:34:53;-1.20;99.90
10468;DHT22;5281;48.878;9.394;2022-12-18T10:37:23;-1.10;99.90
10468;DHT22;5281;48.878;9.394;2022-12-18T10:40:10;-1.10;99.90
10468;DHT22;5281;48.878;9.394;2022-12-18T10:42:38;-1.00;99.90
10468;DHT22;5281;48.878;9.394;2022-12-18T10:45:10;-1.10;99.90
10468;DHT22;5281;48.878;9.394;2022-12-18T10:47:42;-1.10;99.90
10468;DHT22;5281;48.878;9.394;2022-12-18T10:50:19;-1.00;99.90
10468;DHT22;5281;48.878;9.394;2022-12-18T10:52:54;-0.80;99.90
10468;DHT22;5281;48.878;9.394;2022-12-18T10:55:21;-0.70;99.90
10468;DHT22;5281;48.878;9.394;2022-12-18T10:57:49;-0.70;99.90
10468;DHT22;5281;48.878;9.394;2022-12-18T11:00:23;-0.80;99.90
10468;DHT22;5281;48.878;9.394;2022-12-18T11:02:50;-0.70;99.90
10468;DHT22;5281;48.878;9.394;2022-12-18T11:05:29;-0.70;99.90
10468;DHT22;5281;48.878;9.394;2022-12-18T11:07:58;-0.80;99.90
10468;DHT22;5281;48.878;9.394;2022-12-18T11:10:28;-0.70;99.90
10468;DHT22;5281;48.878;9.394;2022-12-18T11:13:12;-0.60;99.90
10468;DHT22;5281;48.878;9.394;2022-12-18T11:15:40;-0.50;99.90
10468;DHT22;5281;48.878;9.394;2022-12-18T11:18:16;-0.40;99.90
10468;DHT22;5281;48.878;9.394;2022-12-18T11:20:50;-0.30;99.90
10468;DHT22;5281;48.878;9.394;2022-12-18T11:23:19;-0.20;99.90
10468;DHT22;5281;48.878;9.394;2022-12-18T11:25:53;-0.20;99.90
10468;DHT22;5281;48.878;9.394;2022-12-18T11:28:37;-0.20;99.90
10468;DHT22;5281;48.878;9.394;2022-12-18T11:31:25;-0.10;99.90
10468;DHT22;5281;48.878;9.394;2022-12-18T11:33:58;-0.10;99.90
10468;DHT22;5281;48.878;9.394;2022-12-18T11:36:29;0.00;99.90
10468;DHT22;5281;48.878;9.394;2022-12-18T11:39:00;0.10;99.90
10468;DHT22;5281;48.878;9.394;2022-12-18T11:41:32;0.40;99.90
10468;DHT22;5281;48.878;9.394;2022-12-18T11:44:24;0.60;99.90
10468;DHT22;5281;48.878;9.394;2022-12-18T11:46:56;0.70;99.90
10468;DHT22;5281;48.878;9.394;2022-12-18T11:49:27;0.80;99.90
10468;DHT22;5281;48.878;9.394;2022-12-18T11:52:00;0.80;99.90
10468;DHT22;5281;48.878;9.394;2022-12-18T11:54:30;0.70;99.90
10468;DHT22;5281;48.878;9.394;2022-12-18T11:57:01;0.80;99.90
10468;DHT22;5281;48.878;9.394;2022-12-18T11:59:37;0.70;99.90
10468;DHT22;5281;48.878;9.394;2022-12-18T12:02:19;0.60;99.90
10468;DHT22;5281;48.878;9.394;2022-12-18T12:05:05;0.60;99.90
10468;DHT22;5281;48.878;9.394;2022-12-18T12:07:42;0.40;99.90
10468;DHT22;5281;48.878;9.394;2022-12-18T12:10:23;0.40;99.90
10468;DHT22;5281;48.878;9.394;2022-12-18T12:13:01;0.40;99.90
10468;DHT22;5281;48.878;9.394;2022-12-18T12:15:41;0.40;99.90
10468;DHT22;5281;48.878;9.394;2022-12-18T12:18:19;0.40;99.90
10468;DHT22;5281;48.878;9.394;2022-12-18T12:20:56;0.50;99.90
10468;DHT22;5281;48.878;9.394;2022-12-18T12:23:30;0.40;99.90
10468;DHT22;5281;48.878;9.394;2022-12-18T12:26:04;0.40;99.90
10468;DHT22;5281;48.878;9.394;2022-12-18T12:28:47;0.40;99.90
10468;DHT22;5281;48.878;9.394;2022-12-18T12:31:27;0.50;99.90
10468;DHT22;5281;48.878;9.394;2022-12-18T12:34:01;0.60;99.90
10468;DHT22;5281;48.878;9.394;2022-12-18T12:36:37;0.70;99.90
10468;DHT22;5281;48.878;9.394;2022-12-18T12:39:09;0.70;99.90
10468;DHT22;5281;48.878;9.394;2022-12-18T12:41:39;0.80;99.90
10468;DHT22;5281;48.878;9.394;2022-12-18T12:44:28;0.80;99.90
10468;DHT22;5281;48.878;9.394;2022-12-18T12:47:10;0.90;99.90
10468;DHT22;5281;48.878;9.394;2022-12-18T12:49:39;1.10;99.90
10468;DHT22;5281;48.878;9.394;2022-12-18T12:52:15;1.10;99.90
10468;DHT22;5281;48.878;9.394;2022-12-18T12:54:44;1.30;99.90
10468;DHT22;5281;48.878;9.394;2022-12-18T12:57:15;1.30;99.90
10468;DHT22;5281;48.878;9.394;2022-12-18T12:59:49;1.20;99.90
10468;DHT22;5281;48.878;9.394;2022-12-18T13:02:23;1.20;99.90
10468;DHT22;5281;48.878;9.394;2022-12-18T13:04:59;1.30;99.90
10468;DHT22;5281;48.878;9.394;2022-12-18T13:07:35;1.20;99.90
10468;DHT22;5281;48.878;9.394;2022-12-18T13:10:13;1.20;99.90
10468;DHT22;5281;48.878;9.394;2022-12-18T13:12:52;1.50;99.90
10468;DHT22;5281;48.878;9.394;2022-12-18T13:15:37;1.40;99.90
10468;DHT22;5281;48.878;9.394;2022-12-18T13:18:18;1.30;99.90
10468;DHT22;5281;48.878;9.394;2022-12-18T13:20:47;1.50;99.90
10468;DHT22;5281;48.878;9.394;2022-12-18T13:23:34;1.50;99.90
10468;DHT22;5281;48.878;9.394;2022-12-18T13:26:29;1.40;99.90
10468;DHT22;5281;48.878;9.394;2022-12-18T13:28:58;1.40;99.90
10468;DHT22;5281;48.878;9.394;2022-12-18T13:34:36;1.20;99.90
10468;DHT22;5281;48.878;9.394;2022-12-18T13:37:39;1.40;99.90
10468;DHT22;5281;48.878;9.394;2022-12-18T13:43:20;1.70;99.90
10468;DHT22;5281;48.878;9.394;2022-12-18T13:45:59;1.70;99.90
10468;DHT22;5281;48.878;9.394;2022-12-18T13:48:28;1.70;99.90
10468;DHT22;5281;48.878;9.394;2022-12-18T13:51:00;1.60;99.90
10468;DHT22;5281;48.878;9.394;2022-12-18T13:53:32;1.50;99.90
10468;DHT22;5281;48.878;9.394;2022-12-18T13:56:00;1.30;99.90
10468;DHT22;5281;48.878;9.394;2022-12-18T13:58:27;1.20;99.90
10468;DHT22;5281;48.878;9.394;2022-12-18T14:00:54;1.30;99.90
10468;DHT22;5281;48.878;9.394;2022-12-18T14:03:23;1.30;99.90
10468;DHT22;5281;48.878;9.394;2022-12-18T14:06:01;1.30;99.90
10468;DHT22;5281;48.878;9.394;2022-12-18T14:08:34;1.20;99.90
10468;DHT22;5281;48.878;9.394;2022-12-18T14:11:04;1.10;99.90
10468;DHT22;5281;48.878;9.394;2022-12-18T14:13:34;1.10;99.90
10468;DHT22;5281;48.878;9.394;2022-12-18T14:16:04;1.10;99.90
10468;DHT22;5281;48.878;9.394;2022-12-18T14:18:38;1.20;99.90
10468;DHT22;5281;48.878;9.394;2022-12-18T14:21:18;1.20;99.90
10468;DHT22;5281;48.878;9.394;2022-12-18T14:23:45;1.20;99.90
10468;DHT22;5281;48.878;9.394;2022-12-18T14:26:21;1.00;99.90
10468;DHT22;5281;48.878;9.394;2022-12-18T14:28:49;0.80;99.90
10468;DHT22;5281;48.878;9.394;2022-12-18T14:31:20;0.70;99.90
10468;DHT22;5281;48.878;9.394;2022-12-18T14:33:47;0.50;99.90
10468;DHT22;5281;48.878;9.394;2022-12-18T14:36:18;0.60;99.90
10468;DHT22;5281;48.878;9.394;2022-12-18T14:38:49;0.60;99.90
10468;DHT22;5281;48.878;9.394;2022-12-18T14:41:18;0.60;99.90
10468;DHT22;5281;48.878;9.394;2022-12-18T14:43:47;0.40;99.90
10468;DHT22;5281;48.878;9.394;2022-12-18T14:46:33;0.40;99.90
10468;DHT22;5281;48.878;9.394;2022-12-18T14:49:03;0.40;99.90
10468;DHT22;5281;48.878;9.394;2022-12-18T14:51:33;0.20;99.90
10468;DHT22;5281;48.878;9.394;2022-12-18T14:54:02;0.20;99.90
10468;DHT22;5281;48.878;9.394;2022-12-18T14:56:31;0.00;99.90
10468;DHT22;5281;48.878;9.394;2022-12-18T14:59:00;0.00;99.90
10468;DHT22;5281;48.878;9.394;2022-12-18T15:01:29;-0.30;99.90
10468;DHT22;5281;48.878;9.394;2022-12-18T15:03:58;-0.50;99.90
10468;DHT22;5281;48.878;9.394;2022-12-18T15:06:29;-0.50;99.90
10468;DHT22;5281;48.878;9.394;2022-12-18T15:08:59;-0.70;99.90
10468;DHT22;5281;48.878;9.394;2022-12-18T15:11:30;-0.80;99.90
10468;DHT22;5281;48.878;9.394;2022-12-18T15:14:03;-1.00;99.90
10468;DHT22;5281;48.878;9.394;2022-12-18T15:16:51;-1.20;99.90
10468;DHT22;5281;48.878;9.394;2022-12-18T15:19:18;-1.30;99.90
10468;DHT22;5281;48.878;9.394;2022-12-18T15:21:46;-1.40;99.90
10468;DHT22;5281;48.878;9.394;2022-12-18T15:24:19;-1.40;99.90
10468;DHT22;5281;48.878;9.394;2022-12-18T15:26:48;-1.40;99.90
10468;DHT22;5281;48.878;9.394;2022-12-18T15:29:19;-1.40;99.90
10468;DHT22;5281;48.878;9.394;2022-12-18T15:31:58;-1.40;99.90
10468;DHT22;5281;48.878;9.394;2022-12-18T15:34:27;-1.50;99.90
10468;DHT22;5281;48.878;9.394;2022-12-18T15:36:54;-1.60;99.90
10468;DHT22;5281;48.878;9.394;2022-12-18T15:39:22;-1.70;99.90
10468;DHT22;5281;48.878;9.394;2022-12-18T15:41:49;-1.70;99.90
10468;DHT22;5281;48.878;9.394;2022-12-18T15:44:33;-1.70;99.90
10468;DHT22;5281;48.878;9.394;2022-12-18T15:47:00;-1.70;99.90
10468;DHT22;5281;48.878;9.394;2022-12-18T15:49:27;-1.80;99.90
10468;DHT22;5281;48.878;9.394;2022-12-18T15:51:57;-1.90;99.90
10468;DHT22;5281;48.878;9.394;2022-12-18T15:54:26;-1.90;99.90
10468;DHT22;5281;48.878;9.394;2022-12-18T15:57:11;-1.90;99.90
10468;DHT22;5281;48.878;9.394;2022-12-18T15:59:50;-1.80;99.90
10468;DHT22;5281;48.878;9.394;2022-12-18T16:02:18;-1.60;99.90
10468;DHT22;5281;48.878;9.394;2022-12-18T16:04:45;-1.50;99.90
10468;DHT22;5281;48.878;9.394;2022-12-18T16:07:12;-1.50;99.90
10468;DHT22;5281;48.878;9.394;2022-12-18T16:09:41;-1.50;99.90
10468;DHT22;5281;48.878;9.394;2022-12-18T16:12:16;-1.30;99.90
10468;DHT22;5281;48.878;9.394;2022-12-18T16:14:44;-1.20;99.90
10468;DHT22;5281;48.878;9.394;2022-12-18T16:17:12;-1.00;99.90